Weather at Elisuperficie nido delle aquile

Public forecast

Using degrees Celsius for public forecast. Weather courtesy of forecast.io.

Closest aviation weather report (METAR) to Elisuperficie nido delle aquile

Closest report is Bari Karol Wojtyła Airport, 17.0 nm (31.5 km) NE.

2024/05/30 03:50 (retrieved 38 minutes ago)

LIBD 300350Z 21005KT CAVOK 15/12 Q1010

Closest aviation forecast (TAF) to Elisuperficie nido delle aquile

Forecast is more than 6 hours old.

Closest forecast is Foggia "Gino Lisa" Airport, 52.6 nm (97.4 km) NW.

2024/05/29 18:00 Ammendment (retrieved 10 hours ago)

TAF AMD LIBF 292123Z 2918/3018 CNL